sensor_id;sensor_type;location;lat;lon;timestamp;P1;durP1;ratioP1;P2;durP2;ratioP2
49139;SDS011;34959;49.310;8.646;2022-12-05T00:01:20;8.30;;;5.00;;
49139;SDS011;34959;49.310;8.646;2022-12-05T00:03:47;6.40;;;4.72;;
49139;SDS011;34959;49.310;8.646;2022-12-05T00:06:13;6.90;;;4.78;;
49139;SDS011;34959;49.310;8.646;2022-12-05T00:08:39;8.40;;;5.28;;
49139;SDS011;34959;49.310;8.646;2022-12-05T00:11:09;8.15;;;4.82;;
49139;SDS011;34959;49.310;8.646;2022-12-05T00:13:36;7.57;;;4.53;;
49139;SDS011;34959;49.310;8.646;2022-12-05T00:16:05;8.50;;;4.95;;
49139;SDS011;34959;49.310;8.646;2022-12-05T00:18:31;7.38;;;4.70;;
49139;SDS011;34959;49.310;8.646;2022-12-05T00:20:57;6.55;;;4.63;;
49139;SDS011;34959;49.310;8.646;2022-12-05T00:23:23;8.77;;;4.88;;
49139;SDS011;34959;49.310;8.646;2022-12-05T00:25:48;7.05;;;4.35;;
49139;SDS011;34959;49.310;8.646;2022-12-05T00:28:14;9.32;;;4.32;;
49139;SDS011;34959;49.310;8.646;2022-12-05T00:30:39;10.95;;;4.15;;
49139;SDS011;34959;49.310;8.646;2022-12-05T00:33:05;6.80;;;4.30;;
49139;SDS011;34959;49.310;8.646;2022-12-05T00:35:31;8.75;;;4.18;;
49139;SDS011;34959;49.310;8.646;2022-12-05T00:37:57;9.32;;;4.20;;
49139;SDS011;34959;49.310;8.646;2022-12-05T00:40:22;4.95;;;3.65;;
49139;SDS011;34959;49.310;8.646;2022-12-05T00:42:48;5.35;;;3.30;;
49139;SDS011;34959;49.310;8.646;2022-12-05T00:45:13;6.15;;;3.55;;
49139;SDS011;34959;49.310;8.646;2022-12-05T00:47:39;6.78;;;3.40;;
49139;SDS011;34959;49.310;8.646;2022-12-05T00:50:04;5.38;;;3.17;;
49139;SDS011;34959;49.310;8.646;2022-12-05T00:52:30;7.38;;;3.40;;
49139;SDS011;34959;49.310;8.646;2022-12-05T00:54:56;5.32;;;3.30;;
49139;SDS011;34959;49.310;8.646;2022-12-05T00:57:21;6.20;;;2.90;;
49139;SDS011;34959;49.310;8.646;2022-12-05T00:59:47;7.60;;;3.30;;
49139;SDS011;34959;49.310;8.646;2022-12-05T01:02:12;6.15;;;3.00;;
49139;SDS011;34959;49.310;8.646;2022-12-05T01:04:37;4.65;;;2.90;;
49139;SDS011;34959;49.310;8.646;2022-12-05T01:07:03;6.50;;;2.80;;
49139;SDS011;34959;49.310;8.646;2022-12-05T01:09:29;6.57;;;3.13;;
49139;SDS011;34959;49.310;8.646;2022-12-05T01:11:54;4.60;;;2.60;;
49139;SDS011;34959;49.310;8.646;2022-12-05T01:14:21;6.18;;;3.15;;
49139;SDS011;34959;49.310;8.646;2022-12-05T01:16:48;5.60;;;2.67;;
49139;SDS011;34959;49.310;8.646;2022-12-05T01:19:17;6.15;;;3.10;;
49139;SDS011;34959;49.310;8.646;2022-12-05T01:21:44;4.63;;;2.85;;
49139;SDS011;34959;49.310;8.646;2022-12-05T01:24:12;6.05;;;2.88;;
49139;SDS011;34959;49.310;8.646;2022-12-05T01:26:38;5.90;;;3.20;;
49139;SDS011;34959;49.310;8.646;2022-12-05T01:29:04;4.63;;;2.83;;
49139;SDS011;34959;49.310;8.646;2022-12-05T01:31:31;5.57;;;3.13;;
49139;SDS011;34959;49.310;8.646;2022-12-05T01:33:59;11.27;;;4.32;;
49139;SDS011;34959;49.310;8.646;2022-12-05T01:36:28;9.45;;;3.80;;
49139;SDS011;34959;49.310;8.646;2022-12-05T01:38:54;6.63;;;3.97;;
49139;SDS011;34959;49.310;8.646;2022-12-05T01:41:21;6.20;;;4.10;;
49139;SDS011;34959;49.310;8.646;2022-12-05T01:46:35;6.50;;;4.10;;
49139;SDS011;34959;49.310;8.646;2022-12-05T01:49:03;8.05;;;3.80;;
49139;SDS011;34959;49.310;8.646;2022-12-05T01:51:37;7.05;;;4.50;;
49139;SDS011;34959;49.310;8.646;2022-12-05T01:54:04;7.53;;;4.20;;
49139;SDS011;34959;49.310;8.646;2022-12-05T01:56:30;11.00;;;4.38;;
49139;SDS011;34959;49.310;8.646;2022-12-05T01:58:56;6.95;;;4.30;;
49139;SDS011;34959;49.310;8.646;2022-12-05T02:01:23;9.23;;;4.57;;
49139;SDS011;34959;49.310;8.646;2022-12-05T02:03:49;6.28;;;4.20;;
49139;SDS011;34959;49.310;8.646;2022-12-05T02:06:17;8.50;;;4.43;;
49139;SDS011;34959;49.310;8.646;2022-12-05T02:08:42;7.03;;;4.45;;
49139;SDS011;34959;49.310;8.646;2022-12-05T02:11:08;7.50;;;4.47;;
49139;SDS011;34959;49.310;8.646;2022-12-05T02:16:23;6.30;;;4.22;;
49139;SDS011;34959;49.310;8.646;2022-12-05T02:24:50;7.35;;;4.75;;
49139;SDS011;34959;49.310;8.646;2022-12-05T02:27:26;7.40;;;4.78;;
49139;SDS011;34959;49.310;8.646;2022-12-05T02:30:06;7.30;;;4.38;;
49139;SDS011;34959;49.310;8.646;2022-12-05T02:42:59;8.93;;;4.83;;
49139;SDS011;34959;49.310;8.646;2022-12-05T02:45:26;7.78;;;4.72;;
49139;SDS011;34959;49.310;8.646;2022-12-05T02:47:53;7.55;;;4.70;;
49139;SDS011;34959;49.310;8.646;2022-12-05T02:50:27;7.80;;;4.35;;
49139;SDS011;34959;49.310;8.646;2022-12-05T02:52:55;6.75;;;4.82;;
49139;SDS011;34959;49.310;8.646;2022-12-05T02:55:22;8.18;;;4.72;;
49139;SDS011;34959;49.310;8.646;2022-12-05T02:57:52;10.43;;;4.97;;
49139;SDS011;34959;49.310;8.646;2022-12-05T03:00:19;10.60;;;5.18;;
49139;SDS011;34959;49.310;8.646;2022-12-05T03:02:46;9.38;;;4.97;;
49139;SDS011;34959;49.310;8.646;2022-12-05T03:05:15;13.40;;;4.95;;
49139;SDS011;34959;49.310;8.646;2022-12-05T03:07:44;10.30;;;4.15;;
49139;SDS011;34959;49.310;8.646;2022-12-05T03:10:11;7.38;;;4.35;;
49139;SDS011;34959;49.310;8.646;2022-12-05T03:12:40;9.13;;;4.90;;
49139;SDS011;34959;49.310;8.646;2022-12-05T03:15:09;7.50;;;4.60;;
49139;SDS011;34959;49.310;8.646;2022-12-05T03:17:41;7.53;;;4.45;;
49139;SDS011;34959;49.310;8.646;2022-12-05T03:20:12;7.05;;;4.40;;
49139;SDS011;34959;49.310;8.646;2022-12-05T03:22:46;7.22;;;4.70;;
49139;SDS011;34959;49.310;8.646;2022-12-05T03:25:38;7.70;;;4.43;;
49139;SDS011;34959;49.310;8.646;2022-12-05T03:28:16;7.82;;;5.10;;
49139;SDS011;34959;49.310;8.646;2022-12-05T03:30:45;7.82;;;4.90;;
49139;SDS011;34959;49.310;8.646;2022-12-05T03:33:46;7.40;;;4.70;;
49139;SDS011;34959;49.310;8.646;2022-12-05T03:38:39;6.47;;;4.40;;
49139;SDS011;34959;49.310;8.646;2022-12-05T03:41:29;7.57;;;4.57;;
49139;SDS011;34959;49.310;8.646;2022-12-05T03:44:12;7.82;;;4.40;;
49139;SDS011;34959;49.310;8.646;2022-12-05T03:46:47;7.10;;;4.32;;
49139;SDS011;34959;49.310;8.646;2022-12-05T03:49:35;7.70;;;5.03;;
49139;SDS011;34959;49.310;8.646;2022-12-05T03:54:34;6.32;;;4.72;;
49139;SDS011;34959;49.310;8.646;2022-12-05T03:57:04;6.40;;;4.60;;
49139;SDS011;34959;49.310;8.646;2022-12-05T03:59:45;6.67;;;4.57;;
49139;SDS011;34959;49.310;8.646;2022-12-05T04:02:29;7.05;;;5.25;;
49139;SDS011;34959;49.310;8.646;2022-12-05T04:05:05;6.22;;;4.70;;
49139;SDS011;34959;49.310;8.646;2022-12-05T04:07:34;7.70;;;4.68;;
49139;SDS011;34959;49.310;8.646;2022-12-05T04:10:03;6.28;;;4.38;;
49139;SDS011;34959;49.310;8.646;2022-12-05T04:12:50;7.18;;;4.90;;
49139;SDS011;34959;49.310;8.646;2022-12-05T04:15:21;7.10;;;4.72;;
49139;SDS011;34959;49.310;8.646;2022-12-05T04:18:12;7.38;;;4.47;;
49139;SDS011;34959;49.310;8.646;2022-12-05T04:20:40;8.98;;;5.28;;
49139;SDS011;34959;49.310;8.646;2022-12-05T04:23:24;6.97;;;4.30;;
49139;SDS011;34959;49.310;8.646;2022-12-05T04:28:45;9.27;;;5.13;;
49139;SDS011;34959;49.310;8.646;2022-12-05T04:31:19;7.47;;;4.57;;
49139;SDS011;34959;49.310;8.646;2022-12-05T04:33:52;9.90;;;4.53;;
49139;SDS011;34959;49.310;8.646;2022-12-05T04:36:21;8.57;;;4.20;;
49139;SDS011;34959;49.310;8.646;2022-12-05T04:41:22;8.90;;;5.00;;
49139;SDS011;34959;49.310;8.646;2022-12-05T04:43:50;7.10;;;4.88;;
49139;SDS011;34959;49.310;8.646;2022-12-05T04:46:17;6.13;;;4.68;;
49139;SDS011;34959;49.310;8.646;2022-12-05T04:48:45;7.90;;;4.22;;
49139;SDS011;34959;49.310;8.646;2022-12-05T04:51:18;6.47;;;4.68;;
49139;SDS011;34959;49.310;8.646;2022-12-05T04:53:45;7.53;;;4.57;;
49139;SDS011;34959;49.310;8.646;2022-12-05T04:56:14;8.38;;;4.90;;
49139;SDS011;34959;49.310;8.646;2022-12-05T04:58:42;6.18;;;4.43;;
49139;SDS011;34959;49.310;8.646;2022-12-05T05:01:09;7.05;;;4.82;;
49139;SDS011;34959;49.310;8.646;2022-12-05T05:03:41;6.60;;;4.70;;
49139;SDS011;34959;49.310;8.646;2022-12-05T05:06:08;6.97;;;4.32;;
49139;SDS011;34959;49.310;8.646;2022-12-05T05:08:35;7.00;;;5.07;;
49139;SDS011;34959;49.310;8.646;2022-12-05T05:13:25;5.90;;;4.68;;
49139;SDS011;34959;49.310;8.646;2022-12-05T05:15:51;8.80;;;4.90;;
49139;SDS011;34959;49.310;8.646;2022-12-05T05:18:16;6.95;;;4.38;;
49139;SDS011;34959;49.310;8.646;2022-12-05T05:20:42;5.72;;;4.38;;
49139;SDS011;34959;49.310;8.646;2022-12-05T05:23:07;6.22;;;4.32;;
49139;SDS011;34959;49.310;8.646;2022-12-05T05:25:32;6.75;;;4.63;;
49139;SDS011;34959;49.310;8.646;2022-12-05T05:27:58;6.18;;;4.35;;
49139;SDS011;34959;49.310;8.646;2022-12-05T05:30:24;8.23;;;4.65;;
49139;SDS011;34959;49.310;8.646;2022-12-05T05:32:49;6.55;;;4.57;;
49139;SDS011;34959;49.310;8.646;2022-12-05T05:35:14;6.55;;;4.70;;
49139;SDS011;34959;49.310;8.646;2022-12-05T05:37:40;7.57;;;4.78;;
49139;SDS011;34959;49.310;8.646;2022-12-05T05:40:06;7.63;;;4.53;;
49139;SDS011;34959;49.310;8.646;2022-12-05T05:42:33;8.57;;;4.70;;
49139;SDS011;34959;49.310;8.646;2022-12-05T05:44:59;5.97;;;4.32;;
49139;SDS011;34959;49.310;8.646;2022-12-05T05:47:24;9.02;;;4.53;;
49139;SDS011;34959;49.310;8.646;2022-12-05T05:49:50;6.43;;;4.90;;
49139;SDS011;34959;49.310;8.646;2022-12-05T05:52:15;6.93;;;4.80;;
49139;SDS011;34959;49.310;8.646;2022-12-05T05:54:40;7.13;;;4.60;;
49139;SDS011;34959;49.310;8.646;2022-12-05T05:57:06;6.90;;;4.70;;
49139;SDS011;34959;49.310;8.646;2022-12-05T05:59:31;6.63;;;4.45;;
49139;SDS011;34959;49.310;8.646;2022-12-05T06:01:57;6.82;;;4.43;;
49139;SDS011;34959;49.310;8.646;2022-12-05T06:04:22;5.93;;;4.05;;
49139;SDS011;34959;49.310;8.646;2022-12-05T06:06:48;6.50;;;4.75;;
49139;SDS011;34959;49.310;8.646;2022-12-05T06:09:13;6.78;;;4.80;;
49139;SDS011;34959;49.310;8.646;2022-12-05T06:11:38;6.78;;;4.75;;
49139;SDS011;34959;49.310;8.646;2022-12-05T06:14:04;6.32;;;4.28;;
49139;SDS011;34959;49.310;8.646;2022-12-05T06:16:30;6.88;;;4.53;;
49139;SDS011;34959;49.310;8.646;2022-12-05T06:18:56;6.60;;;4.78;;
49139;SDS011;34959;49.310;8.646;2022-12-05T06:21:22;6.45;;;4.22;;
49139;SDS011;34959;49.310;8.646;2022-12-05T06:23:47;6.38;;;4.50;;
49139;SDS011;34959;49.310;8.646;2022-12-05T06:26:14;7.38;;;4.53;;
49139;SDS011;34959;49.310;8.646;2022-12-05T06:28:41;6.57;;;4.78;;
49139;SDS011;34959;49.310;8.646;2022-12-05T06:31:11;7.10;;;4.68;;
49139;SDS011;34959;49.310;8.646;2022-12-05T06:33:38;6.40;;;4.22;;
49139;SDS011;34959;49.310;8.646;2022-12-05T06:36:04;8.93;;;4.63;;
49139;SDS011;34959;49.310;8.646;2022-12-05T06:38:34;6.68;;;4.25;;
49139;SDS011;34959;49.310;8.646;2022-12-05T06:40:59;7.18;;;4.38;;
49139;SDS011;34959;49.310;8.646;2022-12-05T06:43:25;6.30;;;4.35;;
49139;SDS011;34959;49.310;8.646;2022-12-05T06:45:50;6.07;;;4.57;;
49139;SDS011;34959;49.310;8.646;2022-12-05T06:48:15;6.70;;;4.47;;
49139;SDS011;34959;49.310;8.646;2022-12-05T06:50:50;7.07;;;4.97;;
49139;SDS011;34959;49.310;8.646;2022-12-05T06:53:16;7.07;;;4.65;;
49139;SDS011;34959;49.310;8.646;2022-12-05T06:55:42;9.13;;;4.55;;
49139;SDS011;34959;49.310;8.646;2022-12-05T06:58:08;7.78;;;4.45;;
49139;SDS011;34959;49.310;8.646;2022-12-05T07:00:33;6.35;;;4.65;;
49139;SDS011;34959;49.310;8.646;2022-12-05T07:03:17;7.45;;;4.63;;
49139;SDS011;34959;49.310;8.646;2022-12-05T07:05:42;6.82;;;4.47;;
49139;SDS011;34959;49.310;8.646;2022-12-05T07:08:08;6.38;;;4.55;;
49139;SDS011;34959;49.310;8.646;2022-12-05T07:10:33;19.13;;;5.18;;
49139;SDS011;34959;49.310;8.646;2022-12-05T07:12:59;14.85;;;4.50;;
49139;SDS011;34959;49.310;8.646;2022-12-05T07:15:24;11.30;;;4.88;;
49139;SDS011;34959;49.310;8.646;2022-12-05T07:17:49;8.80;;;4.47;;
49139;SDS011;34959;49.310;8.646;2022-12-05T07:20:15;8.25;;;4.55;;
49139;SDS011;34959;49.310;8.646;2022-12-05T07:22:42;8.10;;;4.72;;
49139;SDS011;34959;49.310;8.646;2022-12-05T07:25:07;6.75;;;4.30;;
49139;SDS011;34959;49.310;8.646;2022-12-05T07:27:33;6.38;;;4.50;;
49139;SDS011;34959;49.310;8.646;2022-12-05T07:29:58;6.40;;;4.25;;
49139;SDS011;34959;49.310;8.646;2022-12-05T07:32:24;6.43;;;4.55;;
49139;SDS011;34959;49.310;8.646;2022-12-05T07:34:50;7.93;;;4.88;;
49139;SDS011;34959;49.310;8.646;2022-12-05T07:37:15;6.65;;;4.28;;
49139;SDS011;34959;49.310;8.646;2022-12-05T07:39:40;6.60;;;4.40;;
49139;SDS011;34959;49.310;8.646;2022-12-05T07:42:06;7.90;;;4.60;;
49139;SDS011;34959;49.310;8.646;2022-12-05T07:44:32;7.72;;;4.72;;
49139;SDS011;34959;49.310;8.646;2022-12-05T07:46:57;7.70;;;4.45;;
49139;SDS011;34959;49.310;8.646;2022-12-05T07:49:23;6.80;;;4.35;;
49139;SDS011;34959;49.310;8.646;2022-12-05T07:51:48;8.18;;;4.80;;
49139;SDS011;34959;49.310;8.646;2022-12-05T07:54:14;7.90;;;4.45;;
49139;SDS011;34959;49.310;8.646;2022-12-05T07:56:39;7.50;;;4.88;;
49139;SDS011;34959;49.310;8.646;2022-12-05T07:59:05;6.80;;;4.47;;
49139;SDS011;34959;49.310;8.646;2022-12-05T08:01:30;6.88;;;4.70;;
49139;SDS011;34959;49.310;8.646;2022-12-05T08:03:57;6.70;;;4.20;;
49139;SDS011;34959;49.310;8.646;2022-12-05T08:06:24;7.65;;;4.93;;
49139;SDS011;34959;49.310;8.646;2022-12-05T08:08:50;5.85;;;4.38;;
49139;SDS011;34959;49.310;8.646;2022-12-05T08:11:27;7.97;;;4.57;;
49139;SDS011;34959;49.310;8.646;2022-12-05T08:13:54;7.20;;;4.43;;
49139;SDS011;34959;49.310;8.646;2022-12-05T08:16:21;8.27;;;5.07;;
49139;SDS011;34959;49.310;8.646;2022-12-05T08:18:48;6.47;;;4.55;;
49139;SDS011;34959;49.310;8.646;2022-12-05T08:21:18;6.45;;;4.40;;
49139;SDS011;34959;49.310;8.646;2022-12-05T08:23:44;6.82;;;4.97;;
49139;SDS011;34959;49.310;8.646;2022-12-05T08:28:40;7.95;;;4.85;;
49139;SDS011;34959;49.310;8.646;2022-12-05T08:31:06;6.05;;;3.83;;
49139;SDS011;34959;49.310;8.646;2022-12-05T08:33:33;6.18;;;4.60;;
49139;SDS011;34959;49.310;8.646;2022-12-05T08:35:59;7.93;;;4.63;;
49139;SDS011;34959;49.310;8.646;2022-12-05T08:38:26;5.47;;;4.18;;
49139;SDS011;34959;49.310;8.646;2022-12-05T08:40:51;6.93;;;4.82;;
49139;SDS011;34959;49.310;8.646;2022-12-05T08:43:17;6.25;;;4.28;;
49139;SDS011;34959;49.310;8.646;2022-12-05T08:45:48;5.97;;;4.20;;
49139;SDS011;34959;49.310;8.646;2022-12-05T08:48:14;6.72;;;4.85;;
49139;SDS011;34959;49.310;8.646;2022-12-05T08:50:39;7.35;;;4.40;;
49139;SDS011;34959;49.310;8.646;2022-12-05T08:53:04;6.35;;;4.60;;
49139;SDS011;34959;49.310;8.646;2022-12-05T08:55:32;7.60;;;5.07;;
49139;SDS011;34959;49.310;8.646;2022-12-05T08:57:58;7.53;;;4.60;;
49139;SDS011;34959;49.310;8.646;2022-12-05T09:00:24;6.22;;;4.45;;
49139;SDS011;34959;49.310;8.646;2022-12-05T09:02:49;6.93;;;4.68;;
49139;SDS011;34959;49.310;8.646;2022-12-05T09:05:16;6.03;;;4.38;;
49139;SDS011;34959;49.310;8.646;2022-12-05T09:07:41;7.65;;;4.65;;
49139;SDS011;34959;49.310;8.646;2022-12-05T09:10:07;6.15;;;4.18;;
49139;SDS011;34959;49.310;8.646;2022-12-05T09:12:34;6.38;;;4.30;;
49139;SDS011;34959;49.310;8.646;2022-12-05T09:15:04;7.70;;;4.43;;
49139;SDS011;34959;49.310;8.646;2022-12-05T09:17:30;6.85;;;4.50;;
49139;SDS011;34959;49.310;8.646;2022-12-05T09:19:56;6.18;;;4.50;;
49139;SDS011;34959;49.310;8.646;2022-12-05T09:22:21;7.97;;;4.93;;
49139;SDS011;34959;49.310;8.646;2022-12-05T09:24:47;6.13;;;4.22;;
49139;SDS011;34959;49.310;8.646;2022-12-05T09:27:13;6.90;;;4.35;;
49139;SDS011;34959;49.310;8.646;2022-12-05T09:29:38;5.82;;;3.95;;
49139;SDS011;34959;49.310;8.646;2022-12-05T09:32:04;6.72;;;3.95;;
49139;SDS011;34959;49.310;8.646;2022-12-05T09:34:29;7.50;;;4.20;;
49139;SDS011;34959;49.310;8.646;2022-12-05T09:36:55;6.72;;;4.00;;
49139;SDS011;34959;49.310;8.646;2022-12-05T09:39:22;7.88;;;4.63;;
49139;SDS011;34959;49.310;8.646;2022-12-05T09:45:01;8.38;;;3.88;;
49139;SDS011;34959;49.310;8.646;2022-12-05T09:47:35;5.70;;;3.95;;
49139;SDS011;34959;49.310;8.646;2022-12-05T09:58:10;7.70;;;4.28;;
49139;SDS011;34959;49.310;8.646;2022-12-05T10:00:43;6.78;;;4.60;;
49139;SDS011;34959;49.310;8.646;2022-12-05T10:06:07;10.73;;;4.97;;
49139;SDS011;34959;49.310;8.646;2022-12-05T10:08:41;7.18;;;4.70;;
49139;SDS011;34959;49.310;8.646;2022-12-05T10:11:24;5.60;;;4.38;;
49139;SDS011;34959;49.310;8.646;2022-12-05T10:16:35;5.72;;;4.57;;
49139;SDS011;34959;49.310;8.646;2022-12-05T10:19:47;6.35;;;4.50;;
49139;SDS011;34959;49.310;8.646;2022-12-05T10:21:56;5.03;;;4.15;;
49139;SDS011;34959;49.310;8.646;2022-12-05T10:24:29;7.63;;;4.18;;
49139;SDS011;34959;49.310;8.646;2022-12-05T10:27:05;7.18;;;4.82;;
49139;SDS011;34959;49.310;8.646;2022-12-05T10:29:32;6.57;;;4.65;;
49139;SDS011;34959;49.310;8.646;2022-12-05T10:32:06;7.00;;;4.88;;
49139;SDS011;34959;49.310;8.646;2022-12-05T10:34:41;6.30;;;4.70;;
49139;SDS011;34959;49.310;8.646;2022-12-05T10:37:15;5.93;;;4.75;;
49139;SDS011;34959;49.310;8.646;2022-12-05T10:39:45;5.47;;;4.30;;
49139;SDS011;34959;49.310;8.646;2022-12-05T10:42:12;7.15;;;4.10;;
49139;SDS011;34959;49.310;8.646;2022-12-05T10:44:41;5.75;;;4.32;;
49139;SDS011;34959;49.310;8.646;2022-12-05T10:47:07;8.30;;;4.53;;
49139;SDS011;34959;49.310;8.646;2022-12-05T10:49:33;6.03;;;4.20;;
49139;SDS011;34959;49.310;8.646;2022-12-05T10:51:58;5.25;;;3.80;;
49139;SDS011;34959;49.310;8.646;2022-12-05T10:54:25;5.68;;;4.07;;
49139;SDS011;34959;49.310;8.646;2022-12-05T10:56:54;5.25;;;4.03;;
49139;SDS011;34959;49.310;8.646;2022-12-05T10:59:24;5.95;;;3.95;;
49139;SDS011;34959;49.310;8.646;2022-12-05T11:04:21;6.25;;;4.40;;
49139;SDS011;34959;49.310;8.646;2022-12-05T11:06:57;6.18;;;4.55;;
49139;SDS011;34959;49.310;8.646;2022-12-05T11:09:25;5.60;;;4.10;;
49139;SDS011;34959;49.310;8.646;2022-12-05T11:11:56;6.13;;;3.78;;
49139;SDS011;34959;49.310;8.646;2022-12-05T11:14:54;8.98;;;4.35;;
49139;SDS011;34959;49.310;8.646;2022-12-05T11:17:29;6.78;;;4.30;;
49139;SDS011;34959;49.310;8.646;2022-12-05T11:19:56;11.40;;;8.43;;
49139;SDS011;34959;49.310;8.646;2022-12-05T11:22:29;19.35;;;11.68;;
49139;SDS011;34959;49.310;8.646;2022-12-05T11:24:55;20.63;;;12.18;;
49139;SDS011;34959;49.310;8.646;2022-12-05T11:27:25;16.95;;;10.38;;
49139;SDS011;34959;49.310;8.646;2022-12-05T11:32:36;10.30;;;7.53;;
49139;SDS011;34959;49.310;8.646;2022-12-05T11:35:03;9.35;;;5.80;;
49139;SDS011;34959;49.310;8.646;2022-12-05T11:37:32;9.32;;;5.70;;
49139;SDS011;34959;49.310;8.646;2022-12-05T12:00:34;6.32;;;4.57;;
49139;SDS011;34959;49.310;8.646;2022-12-05T12:03:14;8.25;;;5.40;;
49139;SDS011;34959;49.310;8.646;2022-12-05T12:05:49;7.50;;;5.03;;
49139;SDS011;34959;49.310;8.646;2022-12-05T12:08:23;5.50;;;4.18;;
49139;SDS011;34959;49.310;8.646;2022-12-05T12:11:07;8.20;;;4.63;;
49139;SDS011;34959;49.310;8.646;2022-12-05T12:14:04;6.03;;;4.70;;
49139;SDS011;34959;49.310;8.646;2022-12-05T12:24:49;9.02;;;4.30;;
49139;SDS011;34959;49.310;8.646;2022-12-05T12:33:31;6.35;;;4.68;;
49139;SDS011;34959;49.310;8.646;2022-12-05T12:46:51;7.53;;;5.63;;
49139;SDS011;34959;49.310;8.646;2022-12-05T12:52:09;8.27;;;5.35;;
49139;SDS011;34959;49.310;8.646;2022-12-05T12:57:33;6.20;;;4.65;;
49139;SDS011;34959;49.310;8.646;2022-12-05T13:00:55;6.07;;;4.80;;
49139;SDS011;34959;49.310;8.646;2022-12-05T13:03:09;6.40;;;4.75;;
49139;SDS011;34959;49.310;8.646;2022-12-05T13:05:44;8.50;;;5.05;;
49139;SDS011;34959;49.310;8.646;2022-12-05T13:08:26;8.10;;;5.13;;
49139;SDS011;34959;49.310;8.646;2022-12-05T13:13:31;7.30;;;4.85;;
49139;SDS011;34959;49.310;8.646;2022-12-05T13:16:00;5.40;;;4.15;;
49139;SDS011;34959;49.310;8.646;2022-12-05T13:18:30;6.18;;;4.65;;
49139;SDS011;34959;49.310;8.646;2022-12-05T13:20:56;8.88;;;4.43;;
49139;SDS011;34959;49.310;8.646;2022-12-05T13:23:23;5.95;;;4.15;;
49139;SDS011;34959;49.310;8.646;2022-12-05T13:25:51;6.13;;;4.28;;
49139;SDS011;34959;49.310;8.646;2022-12-05T13:29:01;7.30;;;4.68;;
49139;SDS011;34959;49.310;8.646;2022-12-05T13:31:13;5.28;;;4.43;;
49139;SDS011;34959;49.310;8.646;2022-12-05T13:33:48;5.30;;;4.15;;
49139;SDS011;34959;49.310;8.646;2022-12-05T13:36:15;6.03;;;4.47;;
49139;SDS011;34959;49.310;8.646;2022-12-05T13:39:03;6.90;;;4.00;;
49139;SDS011;34959;49.310;8.646;2022-12-05T13:41:50;8.98;;;4.20;;
49139;SDS011;34959;49.310;8.646;2022-12-05T13:44:49;7.22;;;4.22;;
49139;SDS011;34959;49.310;8.646;2022-12-05T13:50:07;5.38;;;4.05;;
49139;SDS011;34959;49.310;8.646;2022-12-05T13:52:48;8.13;;;4.00;;
49139;SDS011;34959;49.310;8.646;2022-12-05T13:55:36;6.68;;;4.05;;
49139;SDS011;34959;49.310;8.646;2022-12-05T13:58:31;6.53;;;3.78;;
49139;SDS011;34959;49.310;8.646;2022-12-05T14:00:48;5.50;;;3.97;;
49139;SDS011;34959;49.310;8.646;2022-12-05T14:05:46;6.57;;;4.05;;
49139;SDS011;34959;49.310;8.646;2022-12-05T14:08:48;4.30;;;3.30;;
49139;SDS011;34959;49.310;8.646;2022-12-05T14:21:21;5.47;;;3.88;;
49139;SDS011;34959;49.310;8.646;2022-12-05T14:24:15;5.45;;;3.25;;
49139;SDS011;34959;49.310;8.646;2022-12-05T14:30:01;5.97;;;3.85;;
49139;SDS011;34959;49.310;8.646;2022-12-05T14:32:30;6.45;;;3.58;;
49139;SDS011;34959;49.310;8.646;2022-12-05T14:35:00;4.32;;;3.42;;
49139;SDS011;34959;49.310;8.646;2022-12-05T14:38:04;5.28;;;3.55;;
49139;SDS011;34959;49.310;8.646;2022-12-05T14:55:39;4.90;;;3.47;;
49139;SDS011;34959;49.310;8.646;2022-12-05T14:58:09;3.83;;;3.10;;
49139;SDS011;34959;49.310;8.646;2022-12-05T15:00:41;5.63;;;3.60;;
49139;SDS011;34959;49.310;8.646;2022-12-05T15:03:08;4.95;;;3.83;;
49139;SDS011;34959;49.310;8.646;2022-12-05T15:05:43;4.18;;;3.25;;
49139;SDS011;34959;49.310;8.646;2022-12-05T15:08:10;5.57;;;3.20;;
49139;SDS011;34959;49.310;8.646;2022-12-05T15:10:38;4.10;;;3.33;;
49139;SDS011;34959;49.310;8.646;2022-12-05T15:13:09;3.50;;;3.00;;
49139;SDS011;34959;49.310;8.646;2022-12-05T15:18:16;4.47;;;3.28;;
49139;SDS011;34959;49.310;8.646;2022-12-05T15:26:05;5.57;;;3.10;;
49139;SDS011;34959;49.310;8.646;2022-12-05T15:29:15;4.55;;;3.05;;
49139;SDS011;34959;49.310;8.646;2022-12-05T15:31:51;4.63;;;3.20;;
49139;SDS011;34959;49.310;8.646;2022-12-05T15:36:59;3.60;;;2.92;;
49139;SDS011;34959;49.310;8.646;2022-12-05T15:39:28;3.90;;;3.03;;
49139;SDS011;34959;49.310;8.646;2022-12-05T15:41:55;3.78;;;3.10;;
49139;SDS011;34959;49.310;8.646;2022-12-05T15:44:21;4.95;;;2.88;;
49139;SDS011;34959;49.310;8.646;2022-12-05T15:46:51;4.60;;;3.03;;
49139;SDS011;34959;49.310;8.646;2022-12-05T15:49:24;5.50;;;2.92;;
49139;SDS011;34959;49.310;8.646;2022-12-05T15:51:57;5.22;;;2.88;;
49139;SDS011;34959;49.310;8.646;2022-12-05T15:54:30;4.35;;;3.03;;
49139;SDS011;34959;49.310;8.646;2022-12-05T15:59:59;4.65;;;3.13;;
49139;SDS011;34959;49.310;8.646;2022-12-05T16:05:15;3.40;;;2.50;;
49139;SDS011;34959;49.310;8.646;2022-12-05T16:07:43;3.63;;;2.95;;
49139;SDS011;34959;49.310;8.646;2022-12-05T16:10:12;4.22;;;3.00;;
49139;SDS011;34959;49.310;8.646;2022-12-05T16:12:38;2.53;;;2.28;;
49139;SDS011;34959;49.310;8.646;2022-12-05T16:15:22;5.68;;;2.75;;
49139;SDS011;34959;49.310;8.646;2022-12-05T16:17:56;4.10;;;2.67;;
49139;SDS011;34959;49.310;8.646;2022-12-05T16:22:52;3.42;;;2.65;;
49139;SDS011;34959;49.310;8.646;2022-12-05T16:25:26;2.67;;;2.33;;
49139;SDS011;34959;49.310;8.646;2022-12-05T16:28:16;3.40;;;2.50;;
49139;SDS011;34959;49.310;8.646;2022-12-05T16:30:51;3.67;;;2.58;;
49139;SDS011;34959;49.310;8.646;2022-12-05T16:33:21;2.90;;;2.45;;
49139;SDS011;34959;49.310;8.646;2022-12-05T16:35:46;4.22;;;2.50;;
49139;SDS011;34959;49.310;8.646;2022-12-05T16:40:50;3.70;;;2.70;;
49139;SDS011;34959;49.310;8.646;2022-12-05T16:45:49;4.20;;;2.60;;
49139;SDS011;34959;49.310;8.646;2022-12-05T16:48:17;3.33;;;2.53;;
49139;SDS011;34959;49.310;8.646;2022-12-05T16:50:45;3.50;;;2.28;;
49139;SDS011;34959;49.310;8.646;2022-12-05T16:53:21;5.25;;;2.53;;
49139;SDS011;34959;49.310;8.646;2022-12-05T16:55:53;3.30;;;2.53;;
49139;SDS011;34959;49.310;8.646;2022-12-05T16:58:19;3.50;;;2.40;;
49139;SDS011;34959;49.310;8.646;2022-12-05T17:00:46;2.88;;;2.38;;
49139;SDS011;34959;49.310;8.646;2022-12-05T17:03:12;3.08;;;2.22;;
49139;SDS011;34959;49.310;8.646;2022-12-05T17:05:38;2.90;;;2.30;;
49139;SDS011;34959;49.310;8.646;2022-12-05T17:08:04;3.25;;;2.53;;
49139;SDS011;34959;49.310;8.646;2022-12-05T17:10:29;3.00;;;2.17;;
49139;SDS011;34959;49.310;8.646;2022-12-05T17:12:55;2.70;;;2.20;;
49139;SDS011;34959;49.310;8.646;2022-12-05T17:15:21;2.65;;;2.25;;
49139;SDS011;34959;49.310;8.646;2022-12-05T17:17:47;3.65;;;2.45;;
49139;SDS011;34959;49.310;8.646;2022-12-05T17:20:12;3.28;;;2.63;;
49139;SDS011;34959;49.310;8.646;2022-12-05T17:22:38;3.35;;;2.67;;
49139;SDS011;34959;49.310;8.646;2022-12-05T17:25:50;2.97;;;2.50;;
49139;SDS011;34959;49.310;8.646;2022-12-05T17:27:55;3.58;;;2.50;;
49139;SDS011;34959;49.310;8.646;2022-12-05T17:30:22;3.85;;;2.50;;
49139;SDS011;34959;49.310;8.646;2022-12-05T17:32:47;3.20;;;2.40;;
49139;SDS011;34959;49.310;8.646;2022-12-05T17:35:17;3.20;;;2.40;;
49139;SDS011;34959;49.310;8.646;2022-12-05T17:37:43;4.35;;;2.35;;
49139;SDS011;34959;49.310;8.646;2022-12-05T17:40:09;2.92;;;2.42;;
49139;SDS011;34959;49.310;8.646;2022-12-05T17:42:34;2.88;;;2.40;;
49139;SDS011;34959;49.310;8.646;2022-12-05T17:45:00;2.33;;;1.98;;
49139;SDS011;34959;49.310;8.646;2022-12-05T17:47:26;3.63;;;2.50;;
49139;SDS011;34959;49.310;8.646;2022-12-05T17:49:51;2.80;;;2.30;;
49139;SDS011;34959;49.310;8.646;2022-12-05T17:52:17;3.35;;;2.40;;
49139;SDS011;34959;49.310;8.646;2022-12-05T17:54:42;2.90;;;2.05;;